createdAt,value
2023-01-29T00:00:36.456Z,-0.92
2023-01-29T00:01:36.529Z,-0.92
2023-01-29T00:02:36.438Z,-0.91
2023-01-29T00:03:36.449Z,-0.91
2023-01-29T00:04:36.403Z,-0.95
2023-01-29T00:05:36.447Z,-0.95
2023-01-29T00:06:36.391Z,-0.95
2023-01-29T00:07:37.367Z,-0.91
2023-01-29T00:08:36.498Z,-0.89
2023-01-29T00:09:36.398Z,-0.87
2023-01-29T00:10:36.364Z,-0.86
2023-01-29T00:11:36.357Z,-0.84
2023-01-29T00:12:36.358Z,-0.84
2023-01-29T00:13:36.332Z,-0.81
2023-01-29T00:14:36.311Z,-0.83
2023-01-29T00:15:36.360Z,-0.78
2023-01-29T00:16:36.349Z,-0.77
2023-01-29T00:17:36.568Z,-0.77
2023-01-29T00:18:36.340Z,-0.75
2023-01-29T00:19:36.316Z,-0.75
2023-01-29T00:20:36.615Z,-0.75
2023-01-29T00:21:36.297Z,-0.73
2023-01-29T00:22:36.213Z,-0.75
2023-01-29T00:23:36.217Z,-0.75
2023-01-29T00:24:36.183Z,-0.75
2023-01-29T00:25:36.234Z,-0.73
2023-01-29T00:26:36.155Z,-0.75
2023-01-29T00:27:36.220Z,-0.77
2023-01-29T00:28:36.240Z,-0.78
2023-01-29T00:29:36.227Z,-0.80
2023-01-29T00:30:36.119Z,-0.78
2023-01-29T00:31:36.253Z,-0.78
2023-01-29T00:32:36.103Z,-0.80
2023-01-29T00:33:36.156Z,-0.78
2023-01-29T00:34:36.094Z,-0.78
2023-01-29T00:35:36.113Z,-0.81
2023-01-29T00:36:36.049Z,-0.84
2023-01-29T00:37:36.079Z,-0.83
2023-01-29T00:38:36.027Z,-0.86
2023-01-29T00:39:47.070Z,-0.86
2023-01-29T00:40:37.067Z,-0.84
2023-01-29T00:41:36.102Z,-0.84
2023-01-29T00:42:36.023Z,-0.83
2023-01-29T00:43:36.032Z,-0.83
2023-01-29T00:44:35.986Z,-0.81
2023-01-29T00:45:36.027Z,-0.81
2023-01-29T00:46:36.028Z,-0.81
2023-01-29T00:47:35.975Z,-0.80
2023-01-29T00:48:35.954Z,-0.81
2023-01-29T00:49:35.966Z,-0.81
2023-01-29T00:50:35.914Z,-0.81
2023-01-29T00:51:35.916Z,-0.81
2023-01-29T00:52:35.891Z,-0.81
2023-01-29T00:53:35.969Z,-0.80
2023-01-29T00:54:35.877Z,-0.81
2023-01-29T00:55:35.916Z,-0.81
2023-01-29T00:56:35.873Z,-0.83
2023-01-29T00:57:35.952Z,-0.84
2023-01-29T00:58:35.950Z,-0.83
2023-01-29T00:59:35.926Z,-0.84
2023-01-29T01:00:35.860Z,-0.87
2023-01-29T01:01:35.896Z,-0.86
2023-01-29T01:02:35.870Z,-0.91
2023-01-29T01:03:35.810Z,-0.91
2023-01-29T01:04:35.766Z,-0.95
2023-01-29T01:05:36.867Z,-0.94
2023-01-29T01:06:35.736Z,-0.97
2023-01-29T01:07:35.779Z,-0.99
2023-01-29T01:08:35.767Z,-0.95
2023-01-29T01:09:35.737Z,-0.99
2023-01-29T01:10:35.692Z,-1.00
2023-01-29T01:11:35.774Z,-1.02
2023-01-29T01:12:35.672Z,-1.02
2023-01-29T01:13:35.712Z,-1.05
2023-01-29T01:14:35.688Z,-1.05
2023-01-29T01:15:35.696Z,-1.06
2023-01-29T01:16:35.677Z,-1.06
2023-01-29T01:17:35.637Z,-1.06
2023-01-29T01:18:35.698Z,-1.10
2023-01-29T01:19:35.666Z,-1.09
2023-01-29T01:20:35.612Z,-1.12
2023-01-29T01:21:35.727Z,-1.15
2023-01-29T01:22:35.602Z,-1.15
2023-01-29T01:23:35.575Z,-1.21
2023-01-29T01:24:35.559Z,-1.21
2023-01-29T01:25:35.554Z,-1.23
2023-01-29T01:26:35.599Z,-1.24
2023-01-29T01:27:35.531Z,-1.25
2023-01-29T01:28:35.510Z,-1.27
2023-01-29T01:29:35.526Z,-1.30
2023-01-29T01:30:35.677Z,-1.31
2023-01-29T01:31:35.606Z,-1.31
2023-01-29T01:32:35.466Z,-1.33
2023-01-29T01:33:35.491Z,-1.33
2023-01-29T01:34:35.499Z,-1.36
2023-01-29T01:35:35.465Z,-1.31
2023-01-29T01:36:35.438Z,-1.30
2023-01-29T01:37:35.440Z,-1.31
2023-01-29T01:38:35.400Z,-1.30
2023-01-29T01:39:35.419Z,-1.30
2023-01-29T01:40:35.454Z,-1.33
2023-01-29T01:41:35.411Z,-1.35
2023-01-29T01:42:35.366Z,-1.33
2023-01-29T01:43:35.395Z,-1.35
2023-01-29T01:44:35.353Z,-1.33
2023-01-29T01:45:35.470Z,-1.36
2023-01-29T01:46:35.372Z,-1.38
2023-01-29T01:47:35.324Z,-1.36
2023-01-29T01:48:35.342Z,-1.38
2023-01-29T01:49:35.320Z,-1.41
2023-01-29T01:50:35.305Z,-1.41
2023-01-29T01:51:35.285Z,-1.42
2023-01-29T01:52:35.268Z,-1.43
2023-01-29T01:53:35.288Z,-1.46
2023-01-29T01:54:35.289Z,-1.49
2023-01-29T01:55:35.262Z,-1.51
2023-01-29T01:56:35.220Z,-1.54
2023-01-29T01:57:35.252Z,-1.54
2023-01-29T01:58:35.249Z,-1.57
2023-01-29T01:59:35.236Z,-1.59
2023-01-29T02:00:35.228Z,-1.59
2023-01-29T02:02:30.772Z,-1.62
2023-01-29T02:03:30.690Z,-1.63
2023-01-29T02:04:30.759Z,-1.66
2023-01-29T02:05:30.719Z,-1.66
2023-01-29T02:06:30.686Z,-1.66
2023-01-29T02:07:30.639Z,-1.66
2023-01-29T02:08:30.676Z,-1.67
2023-01-29T02:09:30.636Z,-1.69
2023-01-29T02:10:30.634Z,-1.70
2023-01-29T02:11:30.622Z,-1.72
2023-01-29T02:12:30.611Z,-1.74
2023-01-29T02:13:30.583Z,-1.77
2023-01-29T02:14:30.620Z,-1.74
2023-01-29T02:15:30.557Z,-1.75
2023-01-29T02:16:30.582Z,-1.75
2023-01-29T02:17:31.624Z,-1.78
2023-01-29T02:18:30.577Z,-1.77
2023-01-29T02:19:30.542Z,-1.78
2023-01-29T02:20:30.642Z,-1.78
2023-01-29T02:21:30.510Z,-1.80
2023-01-29T02:22:30.512Z,-1.81
2023-01-29T02:23:30.570Z,-1.80
2023-01-29T02:24:30.561Z,-1.77
2023-01-29T02:25:31.416Z,-1.77
2023-01-29T02:26:30.505Z,-1.78
2023-01-29T02:27:30.447Z,-1.82
2023-01-29T02:28:30.489Z,-1.81
2023-01-29T02:29:30.414Z,-1.80
2023-01-29T02:30:30.439Z,-1.84
2023-01-29T02:31:30.439Z,-1.87
2023-01-29T02:32:30.414Z,-1.87
2023-01-29T02:33:30.413Z,-1.88
2023-01-29T02:34:30.414Z,-1.88
2023-01-29T02:35:30.355Z,-1.90
2023-01-29T02:36:30.384Z,-1.92
2023-01-29T02:37:30.320Z,-1.87
2023-01-29T02:38:30.450Z,-1.84
2023-01-29T02:39:30.313Z,-1.84
2023-01-29T02:40:30.335Z,-1.82
2023-01-29T02:41:30.274Z,-1.82
2023-01-29T02:42:30.287Z,-1.80
2023-01-29T02:43:30.263Z,-1.80
2023-01-29T02:44:30.265Z,-1.80
2023-01-29T02:45:30.245Z,-1.82
2023-01-29T02:46:30.274Z,-1.82
2023-01-29T02:47:30.213Z,-1.81
2023-01-29T02:48:30.237Z,-1.81
2023-01-29T02:49:30.205Z,-1.80
2023-01-29T02:50:30.207Z,-1.80
2023-01-29T02:51:30.177Z,-1.81
2023-01-29T02:52:30.175Z,-1.81
2023-01-29T02:53:30.175Z,-1.84
2023-01-29T02:54:30.139Z,-1.90
2023-01-29T02:55:30.162Z,-1.92
2023-01-29T02:56:30.121Z,-1.96
2023-01-29T02:57:30.146Z,-1.99
2023-01-29T02:58:30.111Z,-2.00
2023-01-29T02:59:30.143Z,-1.99
2023-01-29T03:00:30.114Z,-2.00
2023-01-29T03:01:30.115Z,-2.00
2023-01-29T03:02:30.123Z,-2.02
2023-01-29T03:03:30.078Z,-2.02
2023-01-29T03:04:30.039Z,-2.05
2023-01-29T03:05:30.076Z,-2.06
2023-01-29T03:06:30.041Z,-2.06
2023-01-29T03:07:30.036Z,-2.11
2023-01-29T03:08:29.984Z,-2.11
2023-01-29T03:09:30.015Z,-2.13
2023-01-29T03:10:29.994Z,-2.11
2023-01-29T03:11:30.062Z,-2.11
2023-01-29T03:12:29.950Z,-2.16
2023-01-29T03:13:29.956Z,-2.20
2023-01-29T03:14:29.920Z,-2.24
2023-01-29T03:15:29.955Z,-2.24
2023-01-29T03:16:30.013Z,-2.24
2023-01-29T03:17:29.973Z,-2.26
2023-01-29T03:18:30.871Z,-2.28
2023-01-29T03:19:30.849Z,-2.26
2023-01-29T03:20:29.856Z,-2.29
2023-01-29T03:21:29.909Z,-2.28
2023-01-29T03:22:29.848Z,-2.32
2023-01-29T03:23:29.854Z,-2.29
2023-01-29T03:24:29.822Z,-2.29
2023-01-29T03:25:29.846Z,-2.33
2023-01-29T03:26:29.794Z,-2.32
2023-01-29T03:27:30.783Z,-2.35
2023-01-29T03:28:29.808Z,-2.36
2023-01-29T03:29:29.838Z,-2.39
2023-01-29T03:30:29.772Z,-2.40
2023-01-29T03:31:29.898Z,-2.40
2023-01-29T03:32:29.755Z,-2.42
2023-01-29T03:33:29.780Z,-2.40
2023-01-29T03:34:29.722Z,-2.39
2023-01-29T03:35:29.735Z,-2.42
2023-01-29T03:36:29.705Z,-2.39
2023-01-29T03:37:29.731Z,-2.42
2023-01-29T03:38:29.799Z,-2.42
2023-01-29T03:39:29.675Z,-2.40
2023-01-29T03:40:29.657Z,-2.39
2023-01-29T03:41:30.631Z,-2.36
2023-01-29T03:42:29.677Z,-2.33
2023-01-29T03:43:29.637Z,-2.32
2023-01-29T03:44:29.603Z,-2.29
2023-01-29T03:45:29.715Z,-2.32
2023-01-29T03:46:29.590Z,-2.28
2023-01-29T03:47:29.625Z,-2.32
2023-01-29T03:48:29.586Z,-2.28
2023-01-29T03:49:29.572Z,-2.28
2023-01-29T03:50:29.543Z,-2.26
2023-01-29T03:51:29.560Z,-2.28
2023-01-29T03:52:29.522Z,-2.24
2023-01-29T03:53:29.550Z,-2.28
2023-01-29T03:54:29.512Z,-2.26
2023-01-29T03:55:29.517Z,-2.26
2023-01-29T03:56:29.489Z,-2.24
2023-01-29T03:57:29.512Z,-2.26
2023-01-29T03:58:29.459Z,-2.29
2023-01-29T03:59:29.468Z,-2.33
2023-01-29T04:00:29.437Z,-2.35
2023-01-29T04:01:29.518Z,-2.39
2023-01-29T04:02:29.436Z,-2.38
2023-01-29T04:03:29.440Z,-2.40
2023-01-29T04:04:29.485Z,-2.42
2023-01-29T04:05:29.435Z,-2.43
2023-01-29T04:06:29.373Z,-2.43
2023-01-29T04:07:29.382Z,-2.42
2023-01-29T04:08:29.360Z,-2.42
2023-01-29T04:09:29.361Z,-2.42
2023-01-29T04:10:29.328Z,-2.42
2023-01-29T04:11:29.378Z,-2.43
2023-01-29T04:12:29.302Z,-2.43
2023-01-29T04:13:29.339Z,-2.43
2023-01-29T04:14:29.282Z,-2.45
2023-01-29T04:15:29.304Z,-2.45
2023-01-29T04:16:29.316Z,-2.45
2023-01-29T04:17:29.281Z,-2.43
2023-01-29T04:18:29.260Z,-2.42
2023-01-29T04:19:29.251Z,-2.42
2023-01-29T04:20:29.226Z,-2.42
2023-01-29T04:21:29.246Z,-2.39
2023-01-29T04:22:29.200Z,-2.38
2023-01-29T04:23:29.235Z,-2.38
2023-01-29T04:24:29.268Z,-2.36
2023-01-29T04:25:29.215Z,-2.35
2023-01-29T04:26:29.157Z,-2.33
2023-01-29T04:27:29.178Z,-2.33
2023-01-29T04:28:29.145Z,-2.35
2023-01-29T04:29:30.267Z,-2.35
2023-01-29T04:30:29.133Z,-2.36
2023-01-29T04:31:29.290Z,-2.35
2023-01-29T04:32:29.096Z,-2.29
2023-01-29T04:33:29.126Z,-2.28
2023-01-29T04:34:29.069Z,-2.24
2023-01-29T04:35:29.084Z,-2.23
2023-01-29T04:36:29.049Z,-2.23
2023-01-29T04:37:29.085Z,-2.23
2023-01-29T04:38:29.029Z,-2.21
2023-01-29T04:39:29.065Z,-2.20
2023-01-29T04:40:29.009Z,-2.18
2023-01-29T04:41:29.038Z,-2.16
2023-01-29T04:42:28.995Z,-2.14
2023-01-29T04:43:29.022Z,-2.13
2023-01-29T04:44:28.956Z,-2.11
2023-01-29T04:45:28.983Z,-2.11
2023-01-29T04:46:28.948Z,-2.08
2023-01-29T04:47:29.998Z,-2.08
2023-01-29T04:48:28.929Z,-2.06
2023-01-29T04:49:28.938Z,-2.08
2023-01-29T04:50:28.899Z,-2.06
2023-01-29T04:51:28.919Z,-2.05
2023-01-29T04:52:28.879Z,-2.06
2023-01-29T04:53:28.921Z,-2.05
2023-01-29T04:54:28.872Z,-2.08
2023-01-29T04:55:28.920Z,-2.03
2023-01-29T04:56:28.835Z,-2.03
2023-01-29T04:57:28.851Z,-2.02
2023-01-29T04:58:28.840Z,-2.02
2023-01-29T04:59:28.842Z,-2.03
2023-01-29T05:00:28.834Z,-2.05
2023-01-29T05:01:28.819Z,-2.05
2023-01-29T05:02:28.837Z,-2.03
2023-01-29T05:03:28.800Z,-2.02
2023-01-29T05:04:28.752Z,-2.00
2023-01-29T05:05:28.769Z,-1.99
2023-01-29T05:06:28.737Z,-1.96
2023-01-29T05:07:28.763Z,-1.92
2023-01-29T05:08:28.721Z,-1.92
2023-01-29T05:09:28.741Z,-1.90
2023-01-29T05:10:28.690Z,-1.90
2023-01-29T05:11:28.709Z,-1.88
2023-01-29T05:12:28.680Z,-1.87
2023-01-29T05:13:28.690Z,-1.85
2023-01-29T05:14:28.667Z,-1.85
2023-01-29T05:15:28.740Z,-1.82
2023-01-29T05:16:28.637Z,-1.82
2023-01-29T05:17:28.667Z,-1.81
2023-01-29T05:18:28.608Z,-1.80
2023-01-29T05:19:28.634Z,-1.78
2023-01-29T05:20:28.583Z,-1.78
2023-01-29T05:21:28.608Z,-1.77
2023-01-29T05:22:28.579Z,-1.78
2023-01-29T05:23:28.590Z,-1.75
2023-01-29T05:24:28.598Z,-1.74
2023-01-29T05:25:28.567Z,-1.75
2023-01-29T05:26:28.511Z,-1.75
2023-01-29T05:27:28.565Z,-1.70
2023-01-29T05:28:28.505Z,-1.72
2023-01-29T05:29:28.532Z,-1.70
2023-01-29T05:30:28.487Z,-1.75
2023-01-29T05:31:28.576Z,-1.75
2023-01-29T05:32:28.449Z,-1.80
2023-01-29T05:33:28.461Z,-1.75
2023-01-29T05:34:28.419Z,-1.75
2023-01-29T05:35:28.462Z,-1.74
2023-01-29T05:36:28.418Z,-1.72
2023-01-29T05:37:28.440Z,-1.69
2023-01-29T05:38:28.390Z,-1.67
2023-01-29T05:39:28.425Z,-1.64
2023-01-29T05:40:28.360Z,-1.62
2023-01-29T05:41:28.374Z,-1.63
2023-01-29T05:42:28.351Z,-1.59
2023-01-29T05:43:28.370Z,-1.56
2023-01-29T05:44:28.368Z,-1.57
2023-01-29T05:45:28.333Z,-1.53
2023-01-29T05:46:28.351Z,-1.53
2023-01-29T05:47:28.322Z,-1.51
2023-01-29T05:48:28.280Z,-1.49
2023-01-29T05:49:28.299Z,-1.49
2023-01-29T05:50:28.261Z,-1.49
2023-01-29T05:51:28.272Z,-1.48
2023-01-29T05:52:28.257Z,-1.46
2023-01-29T05:53:28.259Z,-1.46
2023-01-29T05:54:28.220Z,-1.46
2023-01-29T05:55:28.223Z,-1.43
2023-01-29T05:56:28.193Z,-1.45
2023-01-29T05:57:28.230Z,-1.43
2023-01-29T05:58:28.190Z,-1.43
2023-01-29T05:59:28.193Z,-1.43
2023-01-29T06:00:28.153Z,-1.42
2023-01-29T06:01:28.164Z,-1.41
2023-01-29T06:02:28.143Z,-1.41
2023-01-29T06:03:28.214Z,-1.38
2023-01-29T06:04:28.108Z,-1.38
2023-01-29T06:05:28.135Z,-1.36
2023-01-29T06:06:28.104Z,-1.36
2023-01-29T06:07:28.105Z,-1.33
2023-01-29T06:08:28.085Z,-1.35
2023-01-29T06:09:28.090Z,-1.33
2023-01-29T06:10:28.045Z,-1.30
2023-01-29T06:11:28.072Z,-1.28
2023-01-29T06:12:28.038Z,-1.27
2023-01-29T06:13:28.042Z,-1.24
2023-01-29T06:14:28.001Z,-1.24
2023-01-29T06:15:28.035Z,-1.24
2023-01-29T06:16:28.026Z,-1.23
2023-01-29T06:17:28.031Z,-1.23
2023-01-29T06:18:27.956Z,-1.24
2023-01-29T06:19:27.998Z,-1.23
2023-01-29T06:20:27.937Z,-1.21
2023-01-29T06:21:27.954Z,-1.20
2023-01-29T06:22:27.996Z,-1.20
2023-01-29T06:23:27.943Z,-1.18
2023-01-29T06:24:27.940Z,-1.15
2023-01-29T06:25:27.908Z,-1.15
2023-01-29T06:26:27.876Z,-1.13
2023-01-29T06:27:27.913Z,-1.12
2023-01-29T06:28:27.871Z,-1.10
2023-01-29T06:29:27.876Z,-1.10
2023-01-29T06:30:27.844Z,-1.07
2023-01-29T06:31:38.484Z,-1.07
2023-01-29T06:32:28.863Z,-1.07
2023-01-29T06:33:27.822Z,-1.07
2023-01-29T06:34:27.799Z,-1.05
2023-01-29T06:35:27.802Z,-1.03
2023-01-29T06:36:27.786Z,-1.05
2023-01-29T06:37:27.834Z,-1.02
2023-01-29T06:38:27.761Z,-1.00
2023-01-29T06:39:27.768Z,-0.99
2023-01-29T06:40:27.729Z,-0.99
2023-01-29T06:41:27.743Z,-0.97
2023-01-29T06:42:27.756Z,-0.97
2023-01-29T06:43:27.717Z,-0.95
2023-01-29T06:44:27.718Z,-0.97
2023-01-29T06:45:27.732Z,-0.95
2023-01-29T06:46:27.668Z,-0.95
2023-01-29T06:47:27.685Z,-0.94
2023-01-29T06:48:27.658Z,-0.94
2023-01-29T06:49:27.649Z,-0.94
2023-01-29T06:50:27.610Z,-0.91
2023-01-29T06:51:27.635Z,-0.91
2023-01-29T06:52:27.594Z,-0.89
2023-01-29T06:53:27.643Z,-0.89
2023-01-29T06:54:27.592Z,-0.87
2023-01-29T06:55:27.595Z,-0.87
2023-01-29T06:56:27.570Z,-0.86
2023-01-29T06:57:27.569Z,-0.84
2023-01-29T06:58:27.556Z,-0.83
2023-01-29T06:59:27.554Z,-0.80
2023-01-29T07:00:27.506Z,-0.80
2023-01-29T07:01:35.977Z,-0.80
2023-01-29T07:02:28.543Z,-0.80
2023-01-29T07:03:27.512Z,-0.77
2023-01-29T07:04:27.465Z,-0.73
2023-01-29T07:05:27.484Z,-0.73
2023-01-29T07:06:27.469Z,-0.72
2023-01-29T07:07:27.482Z,-0.69
2023-01-29T07:08:27.447Z,-0.70
2023-01-29T07:09:27.422Z,-0.70
2023-01-29T07:10:27.446Z,-0.69
2023-01-29T07:11:27.409Z,-0.69
2023-01-29T07:12:27.422Z,-0.69
2023-01-29T07:13:27.365Z,-0.68
2023-01-29T07:14:27.395Z,-0.69
2023-01-29T07:15:27.446Z,-0.70
2023-01-29T07:16:27.484Z,-0.68
2023-01-29T07:17:27.330Z,-0.68
2023-01-29T07:18:27.358Z,-0.65
2023-01-29T07:19:27.297Z,-0.65
2023-01-29T07:20:27.322Z,-0.62
2023-01-29T07:21:27.286Z,-0.60
2023-01-29T07:22:27.313Z,-0.59
2023-01-29T07:23:27.277Z,-0.57
2023-01-29T07:24:27.326Z,-0.55
2023-01-29T07:25:27.251Z,-0.57
2023-01-29T07:26:27.255Z,-0.57
2023-01-29T07:27:27.230Z,-0.55
2023-01-29T07:28:27.265Z,-0.54
2023-01-29T07:29:27.445Z,-0.54
2023-01-29T07:30:27.203Z,-0.54
2023-01-29T07:31:27.330Z,-0.54
2023-01-29T07:32:27.217Z,-0.51
2023-01-29T07:33:27.268Z,-0.48
2023-01-29T07:34:27.193Z,-0.45
2023-01-29T07:35:27.149Z,-0.45
2023-01-29T07:36:27.181Z,-0.44
2023-01-29T07:37:27.121Z,-0.44
2023-01-29T07:38:27.144Z,-0.44
2023-01-29T07:39:27.138Z,-0.45
2023-01-29T07:40:27.112Z,-0.44
2023-01-29T07:41:27.083Z,-0.42
2023-01-29T07:42:27.118Z,-0.42
2023-01-29T07:43:27.066Z,-0.39
2023-01-29T07:44:28.034Z,-0.39
2023-01-29T07:45:27.030Z,-0.37
2023-01-29T07:46:27.035Z,-0.33
2023-01-29T07:47:27.025Z,-0.31
2023-01-29T07:48:27.033Z,-0.31
2023-01-29T07:49:26.990Z,-0.29
2023-01-29T07:50:27.005Z,-0.29
2023-01-29T07:51:27.669Z,-0.26
2023-01-29T07:52:26.977Z,-0.27
2023-01-29T07:53:26.967Z,-0.29
2023-01-29T07:54:26.971Z,-0.30
2023-01-29T07:55:26.912Z,-0.31
2023-01-29T07:56:26.966Z,-0.30
2023-01-29T07:57:26.908Z,-0.30
2023-01-29T07:58:26.934Z,-0.30
2023-01-29T07:59:26.899Z,-0.27
2023-01-29T08:00:26.908Z,-0.26
2023-01-29T08:01:26.952Z,-0.23
2023-01-29T08:02:26.938Z,-0.23
2023-01-29T08:03:26.851Z,-0.22
2023-01-29T08:04:26.855Z,-0.23
2023-01-29T08:05:26.858Z,-0.18
2023-01-29T08:06:27.779Z,-0.16
2023-01-29T08:07:26.795Z,-0.16
2023-01-29T08:08:26.829Z,-0.15
2023-01-29T08:09:26.775Z,-0.13
2023-01-29T08:10:26.793Z,-0.12
2023-01-29T08:11:27.713Z,-0.12
2023-01-29T08:12:26.761Z,-0.09
2023-01-29T08:13:26.777Z,-0.08
2023-01-29T08:14:26.751Z,-0.06
2023-01-29T08:15:26.731Z,-0.04
2023-01-29T08:16:26.755Z,-0.04
2023-01-29T08:17:26.671Z,-0.04
2023-01-29T08:18:26.696Z,-0.04
2023-01-29T08:19:26.666Z,-0.04
2023-01-29T08:20:26.688Z,-0.01
2023-01-29T08:21:26.653Z,-0.01
2023-01-29T08:22:26.750Z,0.00
2023-01-29T08:23:26.622Z,0.00
2023-01-29T08:24:36.020Z,0.02
2023-01-29T08:25:27.928Z,0.05
2023-01-29T08:26:26.659Z,0.03
2023-01-29T08:27:26.604Z,0.05
2023-01-29T08:28:27.554Z,0.05
2023-01-29T08:29:26.545Z,0.05
2023-01-29T08:30:26.575Z,0.05
2023-01-29T08:31:26.559Z,0.06
2023-01-29T08:32:26.595Z,0.06
2023-01-29T08:33:37.882Z,0.07
2023-01-29T08:34:27.527Z,0.09
2023-01-29T08:35:26.497Z,0.09
2023-01-29T08:36:26.558Z,0.09
2023-01-29T08:37:26.478Z,0.12
2023-01-29T08:38:26.479Z,0.13
2023-01-29T08:39:26.467Z,0.15
2023-01-29T08:40:26.481Z,0.16
2023-01-29T08:41:26.451Z,0.18
2023-01-29T08:42:26.438Z,0.21
2023-01-29T08:43:26.399Z,0.23
2023-01-29T08:44:26.474Z,0.23
2023-01-29T08:45:26.422Z,0.25
2023-01-29T08:46:26.418Z,0.25
2023-01-29T08:47:28.048Z,0.27
2023-01-29T08:48:26.391Z,0.30
2023-01-29T08:49:26.355Z,0.30
2023-01-29T08:50:26.401Z,0.33
2023-01-29T08:51:26.320Z,0.31
2023-01-29T08:52:26.366Z,0.33
2023-01-29T08:53:26.305Z,0.34
2023-01-29T08:54:26.318Z,0.36
2023-01-29T08:55:26.298Z,0.41
2023-01-29T08:56:26.314Z,0.41
2023-01-29T08:57:26.250Z,0.41
2023-01-29T08:58:26.318Z,0.42
2023-01-29T08:59:26.243Z,0.46
2023-01-29T09:00:26.254Z,0.49
2023-01-29T09:01:26.276Z,0.52
2023-01-29T09:02:26.264Z,0.57
2023-01-29T09:03:26.195Z,0.58
2023-01-29T09:04:26.212Z,0.61
2023-01-29T09:05:26.163Z,0.62
2023-01-29T09:06:26.212Z,0.62
2023-01-29T09:07:26.142Z,0.64
2023-01-29T09:08:26.164Z,0.65
2023-01-29T09:09:26.136Z,0.65
2023-01-29T09:10:26.147Z,0.67
2023-01-29T09:11:26.118Z,0.67
2023-01-29T09:12:26.133Z,0.67
2023-01-29T09:13:26.083Z,0.68
2023-01-29T09:14:26.087Z,0.67
2023-01-29T09:15:26.085Z,0.67
2023-01-29T09:16:26.266Z,0.68
2023-01-29T09:17:26.051Z,0.70
2023-01-29T09:18:26.078Z,0.71
2023-01-29T09:19:26.018Z,0.71
2023-01-29T09:20:26.025Z,0.70
2023-01-29T09:21:25.996Z,0.70
2023-01-29T09:22:26.027Z,0.68
2023-01-29T09:23:26.009Z,0.70
2023-01-29T09:24:25.977Z,0.70
2023-01-29T09:25:25.947Z,0.71
2023-01-29T09:26:25.997Z,0.68
2023-01-29T09:27:25.926Z,0.70
2023-01-29T09:28:25.956Z,0.68
2023-01-29T09:29:25.942Z,0.68
2023-01-29T09:30:25.926Z,0.68
2023-01-29T09:31:25.965Z,0.67
2023-01-29T09:32:52.138Z,0.68
2023-01-29T09:33:26.876Z,0.71
2023-01-29T09:34:25.883Z,0.72
2023-01-29T09:35:25.841Z,0.75
2023-01-29T09:36:26.829Z,0.75
2023-01-29T09:37:25.832Z,0.78
2023-01-29T09:38:25.845Z,0.78
2023-01-29T09:39:25.810Z,0.78
2023-01-29T09:40:25.847Z,0.80
2023-01-29T09:41:25.776Z,0.79
2023-01-29T09:42:25.783Z,0.78
2023-01-29T09:43:25.790Z,0.82
2023-01-29T09:44:25.807Z,0.80
2023-01-29T09:45:25.764Z,0.79
2023-01-29T09:46:25.792Z,0.79
2023-01-29T09:47:25.724Z,0.80
2023-01-29T09:48:25.744Z,0.80
2023-01-29T09:49:25.754Z,0.82
2023-01-29T09:50:25.705Z,0.82
2023-01-29T09:51:25.685Z,0.82
2023-01-29T09:52:25.689Z,0.80
2023-01-29T09:53:25.657Z,0.83
2023-01-29T09:54:25.670Z,0.86
2023-01-29T09:55:25.622Z,0.86
2023-01-29T09:56:25.644Z,0.88
2023-01-29T09:57:25.602Z,0.88
2023-01-29T09:58:25.612Z,0.89
2023-01-29T09:59:25.666Z,0.92
2023-01-29T10:00:25.671Z,0.90
2023-01-29T10:01:25.607Z,0.92
2023-01-29T10:02:25.670Z,0.92
2023-01-29T10:03:25.560Z,0.94
2023-01-29T10:04:25.585Z,0.98
2023-01-29T10:05:25.542Z,0.98
2023-01-29T10:06:26.480Z,0.98
2023-01-29T10:07:25.500Z,1.00
2023-01-29T10:08:25.578Z,1.01
2023-01-29T10:09:25.484Z,1.03
2023-01-29T10:10:25.516Z,1.04
2023-01-29T10:11:25.460Z,1.08
2023-01-29T10:12:25.605Z,1.10
2023-01-29T10:13:25.428Z,1.14
2023-01-29T10:14:25.475Z,1.15
2023-01-29T10:15:25.410Z,1.21
2023-01-29T10:16:25.428Z,1.22
2023-01-29T10:17:25.393Z,1.25
2023-01-29T10:18:25.398Z,1.28
2023-01-29T10:19:25.380Z,1.32
2023-01-29T10:20:26.140Z,1.36
2023-01-29T10:21:25.387Z,1.39
2023-01-29T10:22:25.375Z,1.40
2023-01-29T10:23:25.341Z,1.43
2023-01-29T10:24:25.341Z,1.43
2023-01-29T10:25:25.333Z,1.46
2023-01-29T10:26:25.386Z,1.47
2023-01-29T10:27:25.284Z,1.51
2023-01-29T10:28:25.337Z,1.52
2023-01-29T10:29:25.327Z,1.52
2023-01-29T10:30:25.280Z,1.54
2023-01-29T10:31:25.421Z,1.52
2023-01-29T10:32:25.266Z,1.52
2023-01-29T10:33:25.213Z,1.57
2023-01-29T10:34:25.217Z,1.60
2023-01-29T10:35:25.192Z,1.62
2023-01-29T10:36:25.232Z,1.64
2023-01-29T10:37:25.190Z,1.60
2023-01-29T10:38:25.187Z,1.58
2023-01-29T10:39:26.600Z,1.55
2023-01-29T10:40:25.158Z,1.52
2023-01-29T10:41:25.152Z,1.52
2023-01-29T10:42:25.932Z,1.51
2023-01-29T10:43:25.102Z,1.50
2023-01-29T10:44:25.117Z,1.52
2023-01-29T10:45:25.119Z,1.50
2023-01-29T10:46:25.085Z,1.47
2023-01-29T10:47:25.095Z,1.50
2023-01-29T10:48:25.078Z,1.47
2023-01-29T10:49:25.062Z,1.47
2023-01-29T10:50:25.049Z,1.51
2023-01-29T10:51:25.020Z,1.51
2023-01-29T10:52:25.038Z,1.51
2023-01-29T10:53:24.996Z,1.50
2023-01-29T10:54:25.032Z,1.51
2023-01-29T10:55:25.012Z,1.47
2023-01-29T10:56:25.012Z,1.42
2023-01-29T10:57:24.946Z,1.39
2023-01-29T10:58:24.984Z,1.39
2023-01-29T10:59:24.934Z,1.39
2023-01-29T11:00:24.986Z,1.40
2023-01-29T11:01:24.933Z,1.42
2023-01-29T11:02:24.975Z,1.44
2023-01-29T11:03:28.340Z,1.44
2023-01-29T11:04:24.902Z,1.46
2023-01-29T11:05:24.881Z,1.50
2023-01-29T11:06:24.874Z,1.51
2023-01-29T11:07:24.865Z,1.50
2023-01-29T11:08:24.884Z,1.50
2023-01-29T11:09:24.820Z,1.50
2023-01-29T11:10:24.838Z,1.50
2023-01-29T11:11:24.822Z,1.50
2023-01-29T11:12:24.827Z,1.50
2023-01-29T11:13:24.783Z,1.51
2023-01-29T11:14:24.792Z,1.47
2023-01-29T11:15:24.790Z,1.51
2023-01-29T11:16:24.791Z,1.52
2023-01-29T11:17:24.757Z,1.54
2023-01-29T11:18:24.773Z,1.54
2023-01-29T11:19:24.755Z,1.54
2023-01-29T11:20:24.740Z,1.55
2023-01-29T11:21:24.723Z,1.54
2023-01-29T11:22:24.713Z,1.54
2023-01-29T11:23:24.691Z,1.55
2023-01-29T11:24:24.671Z,1.55
2023-01-29T11:25:24.686Z,1.55
2023-01-29T11:26:24.678Z,1.57
2023-01-29T11:27:24.662Z,1.57
2023-01-29T11:28:24.638Z,1.60
2023-01-29T11:29:24.645Z,1.61
2023-01-29T11:30:24.614Z,1.64
2023-01-29T11:31:24.763Z,1.71
2023-01-29T11:32:24.588Z,1.72
2023-01-29T11:33:24.588Z,1.71
2023-01-29T11:34:24.550Z,1.73
2023-01-29T11:35:24.577Z,1.72
2023-01-29T11:36:24.550Z,1.72
2023-01-29T11:37:24.543Z,1.76
2023-01-29T11:38:24.517Z,1.73
2023-01-29T11:39:24.522Z,1.75
2023-01-29T11:40:24.497Z,1.78
2023-01-29T11:41:24.508Z,1.78
2023-01-29T11:42:24.481Z,1.78
2023-01-29T11:43:24.487Z,1.76
2023-01-29T11:44:24.478Z,1.79
2023-01-29T11:45:24.467Z,1.78
2023-01-29T11:46:24.438Z,1.79
2023-01-29T11:47:24.422Z,1.79
2023-01-29T11:48:24.421Z,1.82
2023-01-29T11:49:24.418Z,1.79
2023-01-29T11:50:24.386Z,1.80
2023-01-29T11:51:24.381Z,1.80
2023-01-29T11:52:24.382Z,1.83
2023-01-29T11:53:24.390Z,1.82
2023-01-29T11:54:24.330Z,1.85
2023-01-29T11:55:24.354Z,1.87
2023-01-29T11:56:24.329Z,1.89
2023-01-29T11:57:25.784Z,1.91
2023-01-29T11:58:24.298Z,1.94
2023-01-29T11:59:24.295Z,1.97
2023-01-29T12:00:24.271Z,1.98
2023-01-29T12:01:24.301Z,2.01
2023-01-29T12:02:24.244Z,2.04
2023-01-29T12:03:25.201Z,2.04
2023-01-29T12:04:25.219Z,2.04
2023-01-29T12:05:24.234Z,2.09
2023-01-29T12:06:24.229Z,2.10
2023-01-29T12:07:24.202Z,2.10
2023-01-29T12:08:24.195Z,2.15
2023-01-29T12:09:24.193Z,2.15
2023-01-29T12:10:24.147Z,2.19
2023-01-29T12:11:24.193Z,2.20
2023-01-29T12:12:24.128Z,2.20
2023-01-29T12:13:24.149Z,2.26
2023-01-29T12:14:24.109Z,2.28
2023-01-29T12:15:24.116Z,2.23
2023-01-29T12:16:24.110Z,2.26
2023-01-29T12:17:24.119Z,2.27
2023-01-29T12:18:24.078Z,2.31
2023-01-29T12:19:24.078Z,2.31
2023-01-29T12:20:24.053Z,2.34
2023-01-29T12:21:24.057Z,2.37
2023-01-29T12:22:24.055Z,2.40
2023-01-29T12:23:24.025Z,2.40
2023-01-29T12:24:23.990Z,2.38
2023-01-29T12:25:24.078Z,2.37
2023-01-29T12:26:24.009Z,2.34
2023-01-29T12:27:23.988Z,2.30
2023-01-29T12:28:23.955Z,2.22
2023-01-29T12:29:23.994Z,2.23
2023-01-29T12:30:23.920Z,2.26
2023-01-29T12:31:23.976Z,2.27
2023-01-29T12:32:23.919Z,2.26
2023-01-29T12:33:23.936Z,2.27
2023-01-29T12:34:23.885Z,2.22
2023-01-29T12:35:23.931Z,2.26
2023-01-29T12:36:23.879Z,2.27
2023-01-29T12:37:23.899Z,2.28
2023-01-29T12:38:23.860Z,2.30
2023-01-29T12:39:23.863Z,2.33
2023-01-29T12:40:23.825Z,2.37
2023-01-29T12:41:23.849Z,2.35
2023-01-29T12:42:23.842Z,2.34
2023-01-29T12:43:23.831Z,2.37
2023-01-29T12:44:23.773Z,2.38
2023-01-29T12:45:23.821Z,2.37
2023-01-29T12:46:23.800Z,2.35
2023-01-29T12:47:23.768Z,2.38
2023-01-29T12:48:23.732Z,2.40
2023-01-29T12:49:23.744Z,2.41
2023-01-29T12:50:23.726Z,2.41
2023-01-29T12:51:23.732Z,2.44
2023-01-29T12:52:23.705Z,2.44
2023-01-29T12:53:23.700Z,2.45
2023-01-29T12:54:23.673Z,2.46
2023-01-29T12:55:25.144Z,2.49
2023-01-29T12:56:23.674Z,2.52
2023-01-29T12:57:23.678Z,2.51
2023-01-29T12:58:25.083Z,2.52
2023-01-29T12:59:23.636Z,2.53
2023-01-29T13:00:23.603Z,2.55
2023-01-29T13:01:23.724Z,2.56
2023-01-29T13:02:23.623Z,2.51